createdAt,value
2022-07-31T00:02:08.614Z,18.70
2022-07-31T00:04:35.496Z,19.93
2022-07-31T00:07:02.541Z,18.90
2022-07-31T00:09:52.258Z,18.90
2022-07-31T00:12:17.702Z,20.07
2022-07-31T00:14:45.409Z,19.60
2022-07-31T00:17:12.355Z,20.23
2022-07-31T00:19:39.509Z,19.60
2022-07-31T00:22:06.292Z,19.23
2022-07-31T00:24:33.529Z,20.33
2022-07-31T00:27:00.470Z,19.53
2022-07-31T00:29:27.403Z,21.10
2022-07-31T00:31:54.078Z,20.03
2022-07-31T00:34:20.812Z,19.33
2022-07-31T00:36:47.578Z,20.37
2022-07-31T00:39:14.820Z,21.10
2022-07-31T00:41:45.841Z,23.03
2022-07-31T00:44:14.036Z,21.67
2022-07-31T00:46:42.140Z,23.70
2022-07-31T00:49:12.397Z,21.70
2022-07-31T00:51:40.287Z,22.37
2022-07-31T00:54:08.521Z,23.40
2022-07-31T00:56:35.679Z,22.83
2022-07-31T00:59:03.516Z,23.23
2022-07-31T01:01:30.898Z,23.47
2022-07-31T01:03:58.264Z,23.37
2022-07-31T01:06:25.385Z,24.23
2022-07-31T01:08:52.223Z,23.47
2022-07-31T01:11:41.245Z,23.17
2022-07-31T01:14:09.487Z,24.00
2022-07-31T01:16:40.859Z,24.57
2022-07-31T01:19:43.146Z,23.63
2022-07-31T01:22:33.600Z,23.47
2022-07-31T01:25:11.943Z,23.57
2022-07-31T01:28:09.603Z,22.67
2022-07-31T01:31:25.527Z,23.37
2022-07-31T01:33:53.670Z,22.00
2022-07-31T01:36:24.716Z,22.27
2022-07-31T01:38:56.192Z,22.13
2022-07-31T01:41:28.417Z,21.63
2022-07-31T01:43:58.259Z,19.87
2022-07-31T01:46:27.709Z,20.30
2022-07-31T01:48:56.515Z,21.50
2022-07-31T01:51:25.525Z,21.57
2022-07-31T01:53:55.814Z,21.50
2022-07-31T01:56:23.839Z,21.50
2022-07-31T01:58:51.448Z,21.63
2022-07-31T02:01:20.731Z,21.07
2022-07-31T02:03:51.457Z,20.03
2022-07-31T02:06:25.103Z,20.03
2022-07-31T02:08:55.482Z,20.23
2022-07-31T02:11:23.366Z,20.53
2022-07-31T02:13:53.241Z,19.73
2022-07-31T02:16:21.350Z,19.17
2022-07-31T02:18:51.144Z,20.50
2022-07-31T02:21:18.294Z,19.60
2022-07-31T02:23:45.131Z,20.40
2022-07-31T02:26:13.191Z,20.50
2022-07-31T02:28:43.778Z,20.73
2022-07-31T02:31:12.741Z,20.93
2022-07-31T02:33:43.287Z,22.20
2022-07-31T02:36:12.736Z,20.67
2022-07-31T02:38:40.833Z,21.40
2022-07-31T02:41:09.786Z,20.23
2022-07-31T02:43:37.690Z,22.10
2022-07-31T02:46:06.647Z,21.57
2022-07-31T02:48:33.322Z,20.80
2022-07-31T02:51:00.259Z,20.63
2022-07-31T02:53:27.320Z,23.27
2022-07-31T02:55:55.462Z,22.93
2022-07-31T02:58:22.430Z,20.77
2022-07-31T03:00:58.584Z,22.73
2022-07-31T03:03:25.701Z,21.90
2022-07-31T03:05:52.558Z,21.43
2022-07-31T03:08:19.598Z,22.40
2022-07-31T03:10:47.177Z,23.50
2022-07-31T03:13:15.949Z,21.73
2022-07-31T03:15:50.989Z,22.20
2022-07-31T03:18:21.634Z,22.33
2022-07-31T03:20:52.075Z,21.63
2022-07-31T03:23:22.101Z,22.17
2022-07-31T03:25:50.272Z,22.00
2022-07-31T03:28:21.512Z,22.17
2022-07-31T03:30:51.934Z,21.77
2022-07-31T03:33:23.463Z,22.93
2022-07-31T03:35:50.568Z,22.47
2022-07-31T03:38:41.184Z,22.83
2022-07-31T03:41:04.670Z,21.87
2022-07-31T03:43:46.807Z,22.00
2022-07-31T03:46:17.312Z,22.17
2022-07-31T03:48:44.833Z,21.97
2022-07-31T03:51:13.298Z,22.03
2022-07-31T03:53:40.691Z,22.47
2022-07-31T03:56:07.759Z,21.27
2022-07-31T03:58:34.707Z,22.33
2022-07-31T04:01:08.355Z,22.50
2022-07-31T04:03:38.868Z,22.00
2022-07-31T04:06:05.653Z,20.87
2022-07-31T04:08:33.673Z,21.77
2022-07-31T04:11:00.490Z,19.67
2022-07-31T04:13:27.379Z,21.47
2022-07-31T04:15:54.191Z,20.77
2022-07-31T04:18:20.926Z,18.90
2022-07-31T04:20:47.707Z,19.53
2022-07-31T04:23:14.489Z,20.77
2022-07-31T04:25:41.184Z,20.50
2022-07-31T04:28:08.041Z,19.77
2022-07-31T04:30:34.986Z,20.43
2022-07-31T04:33:01.670Z,21.13
2022-07-31T04:35:28.372Z,20.73
2022-07-31T04:37:57.548Z,20.07
2022-07-31T04:40:26.359Z,20.87
2022-07-31T04:42:56.446Z,20.63
2022-07-31T04:45:23.181Z,19.97
2022-07-31T04:47:49.941Z,20.70
2022-07-31T04:50:16.638Z,21.47
2022-07-31T04:52:43.345Z,20.23
2022-07-31T04:55:10.453Z,18.77
2022-07-31T04:57:37.317Z,19.07
2022-07-31T05:00:06.479Z,19.33
2022-07-31T05:02:33.272Z,18.73
2022-07-31T05:05:00.067Z,19.07
2022-07-31T05:07:28.807Z,19.47
2022-07-31T05:09:56.870Z,18.27
2022-07-31T05:12:23.590Z,17.87
2022-07-31T05:14:50.343Z,17.20
2022-07-31T05:17:17.279Z,17.63
2022-07-31T05:19:43.930Z,16.00
2022-07-31T05:22:11.618Z,14.73
2022-07-31T05:24:38.455Z,14.70
2022-07-31T05:27:05.547Z,13.17
2022-07-31T05:29:33.423Z,13.47
2022-07-31T05:32:01.088Z,12.80
2022-07-31T05:34:31.440Z,12.00
2022-07-31T05:37:01.187Z,12.50
2022-07-31T05:39:28.936Z,12.60
2022-07-31T05:41:55.642Z,11.80
2022-07-31T05:44:22.390Z,11.77
2022-07-31T05:49:15.894Z,11.40
2022-07-31T05:51:43.938Z,11.03
2022-07-31T05:54:10.873Z,11.10
2022-07-31T05:56:37.658Z,9.95
2022-07-31T05:59:04.533Z,9.03
2022-07-31T06:01:31.300Z,8.18
2022-07-31T06:03:58.022Z,8.63
2022-07-31T06:06:25.994Z,8.40
2022-07-31T06:08:52.754Z,8.05
2022-07-31T06:11:19.436Z,7.53
2022-07-31T06:13:46.167Z,7.25
2022-07-31T06:16:14.014Z,7.05
2022-07-31T06:18:41.900Z,5.47
2022-07-31T06:21:08.557Z,6.13
2022-07-31T06:23:35.314Z,5.45
2022-07-31T06:26:02.019Z,5.85
2022-07-31T06:28:48.045Z,5.35
2022-07-31T06:31:19.994Z,5.30
2022-07-31T06:33:48.510Z,5.00
2022-07-31T06:36:16.921Z,4.22
2022-07-31T06:38:43.604Z,3.95
2022-07-31T06:41:10.364Z,4.00
2022-07-31T06:43:37.401Z,3.90
2022-07-31T06:46:04.089Z,3.53
2022-07-31T06:48:30.752Z,3.10
2022-07-31T06:51:28.268Z,3.13
2022-07-31T06:53:44.180Z,3.05
2022-07-31T06:56:10.906Z,3.45
2022-07-31T06:58:38.096Z,3.25
2022-07-31T07:01:04.985Z,2.88
2022-07-31T07:03:31.852Z,2.80
2022-07-31T07:05:58.651Z,2.65
2022-07-31T07:08:25.551Z,2.83
2022-07-31T07:10:52.312Z,2.90
2022-07-31T07:13:19.071Z,2.75
2022-07-31T07:15:46.053Z,2.70
2022-07-31T07:18:13.213Z,2.80
2022-07-31T07:20:40.142Z,2.40
2022-07-31T07:23:06.865Z,2.40
2022-07-31T07:25:33.669Z,2.00
2022-07-31T07:28:00.457Z,2.33
2022-07-31T07:30:30.260Z,1.98
2022-07-31T07:32:56.950Z,1.70
2022-07-31T07:35:23.668Z,2.30
2022-07-31T07:37:50.377Z,2.15
2022-07-31T07:40:17.296Z,2.15
2022-07-31T07:42:44.906Z,1.88
2022-07-31T07:45:12.180Z,2.00
2022-07-31T07:47:53.701Z,2.30
2022-07-31T07:50:29.573Z,2.42
2022-07-31T07:52:56.798Z,2.53
2022-07-31T07:55:24.025Z,1.98
2022-07-31T07:57:50.721Z,2.05
2022-07-31T08:00:17.563Z,2.00
2022-07-31T08:03:46.988Z,2.10
2022-07-31T08:05:32.702Z,2.00
2022-07-31T08:07:59.789Z,2.25
2022-07-31T08:10:26.429Z,2.10
2022-07-31T08:12:54.803Z,2.17
2022-07-31T08:15:21.592Z,1.70
2022-07-31T08:17:48.368Z,2.08
2022-07-31T08:20:15.180Z,1.67
2022-07-31T08:22:41.871Z,1.92
2022-07-31T08:25:09.117Z,2.00
2022-07-31T08:27:41.885Z,1.88
2022-07-31T08:30:09.962Z,1.80
2022-07-31T08:32:38.527Z,2.03
2022-07-31T08:35:05.778Z,2.05
2022-07-31T08:37:52.406Z,1.80
2022-07-31T08:40:20.679Z,1.75
2022-07-31T08:42:47.494Z,2.17
2022-07-31T08:45:15.177Z,2.20
2022-07-31T08:47:46.091Z,1.92
2022-07-31T08:50:15.411Z,2.53
2022-07-31T08:52:44.741Z,1.92
2022-07-31T08:55:24.571Z,2.08
2022-07-31T08:57:59.211Z,2.00
2022-07-31T09:00:26.067Z,2.00
2022-07-31T09:02:55.154Z,2.40
2022-07-31T09:05:21.924Z,2.53
2022-07-31T09:07:48.632Z,2.10
2022-07-31T09:10:23.452Z,2.40
2022-07-31T09:12:50.230Z,2.75
2022-07-31T09:15:28.675Z,3.22
2022-07-31T09:17:55.962Z,2.90
2022-07-31T09:20:30.477Z,2.60
2022-07-31T09:23:08.432Z,2.78
2022-07-31T09:25:35.136Z,2.90
2022-07-31T09:28:06.804Z,2.85
2022-07-31T09:30:33.947Z,2.78
2022-07-31T09:33:13.959Z,2.95
2022-07-31T09:35:50.816Z,2.67
2022-07-31T09:38:18.455Z,2.60
2022-07-31T09:40:57.255Z,2.47
2022-07-31T09:43:25.950Z,2.75
2022-07-31T09:46:02.214Z,2.40
2022-07-31T09:48:29.700Z,2.38
2022-07-31T09:50:59.761Z,2.33
2022-07-31T09:53:26.829Z,2.72
2022-07-31T09:55:56.913Z,2.42
2022-07-31T09:58:24.401Z,3.00
2022-07-31T10:00:53.312Z,2.50
2022-07-31T10:03:29.881Z,2.63
2022-07-31T10:05:58.874Z,2.40
2022-07-31T10:08:28.054Z,2.30
2022-07-31T10:10:57.411Z,2.60
2022-07-31T10:13:24.728Z,2.28
2022-07-31T10:15:54.269Z,2.60
2022-07-31T10:18:35.932Z,2.72
2022-07-31T10:21:06.390Z,2.53
2022-07-31T10:23:40.634Z,3.08
2022-07-31T10:26:09.011Z,3.05
2022-07-31T10:28:39.650Z,2.47
2022-07-31T10:31:06.483Z,2.25
2022-07-31T10:33:44.221Z,2.17
2022-07-31T10:36:19.891Z,2.20
2022-07-31T10:39:01.661Z,2.33
2022-07-31T10:41:47.086Z,2.30
2022-07-31T10:44:23.330Z,2.00
2022-07-31T10:46:50.484Z,2.35
2022-07-31T10:49:17.347Z,2.10
2022-07-31T10:51:51.308Z,2.28
2022-07-31T10:54:17.977Z,1.65
2022-07-31T10:56:47.551Z,2.08
2022-07-31T10:59:14.716Z,2.47
2022-07-31T11:01:53.142Z,2.38
2022-07-31T11:04:32.843Z,2.25
2022-07-31T11:07:00.382Z,2.05
2022-07-31T11:09:29.152Z,1.98
2022-07-31T11:11:56.355Z,1.70
2022-07-31T11:14:38.839Z,1.85
2022-07-31T11:17:05.936Z,1.88
2022-07-31T11:19:41.646Z,1.90
2022-07-31T11:22:31.621Z,1.90
2022-07-31T11:25:00.835Z,2.08
2022-07-31T11:27:34.539Z,1.90
2022-07-31T11:30:12.846Z,2.00
2022-07-31T11:32:41.367Z,2.13
2022-07-31T11:35:08.975Z,2.10
2022-07-31T11:37:56.183Z,2.15
2022-07-31T11:40:27.422Z,2.10
2022-07-31T11:43:23.263Z,2.25
2022-07-31T11:45:53.237Z,2.20
2022-07-31T11:48:26.543Z,2.15
2022-07-31T11:50:54.676Z,2.35
2022-07-31T11:53:21.535Z,2.28
2022-07-31T11:55:54.045Z,2.20
2022-07-31T11:58:22.803Z,2.30
2022-07-31T12:00:58.213Z,1.90
2022-07-31T12:03:30.176Z,1.80
2022-07-31T12:05:57.232Z,2.30
2022-07-31T12:08:25.712Z,2.03
2022-07-31T12:10:54.115Z,1.90
2022-07-31T12:13:22.150Z,2.20
2022-07-31T12:15:58.147Z,1.88
2022-07-31T12:18:28.508Z,1.98
2022-07-31T12:21:03.275Z,2.20
2022-07-31T12:24:03.046Z,2.17
2022-07-31T12:26:33.597Z,1.95
2022-07-31T12:29:07.133Z,2.20
2022-07-31T12:31:51.263Z,1.90
2022-07-31T12:34:38.285Z,1.90
2022-07-31T12:37:06.654Z,2.00
2022-07-31T12:40:00.395Z,1.60
2022-07-31T12:42:40.638Z,2.28
2022-07-31T12:45:18.527Z,1.85
2022-07-31T12:47:52.078Z,2.13
2022-07-31T12:50:24.185Z,2.15
2022-07-31T12:52:51.657Z,2.30
2022-07-31T12:55:18.481Z,1.80
2022-07-31T12:57:51.796Z,2.35
2022-07-31T13:00:24.140Z,2.10
2022-07-31T13:02:52.755Z,2.22
2022-07-31T13:05:20.019Z,2.20
2022-07-31T13:07:47.146Z,1.77
2022-07-31T13:10:20.300Z,1.90
2022-07-31T13:12:52.452Z,2.10
2022-07-31T13:15:22.538Z,1.98
2022-07-31T13:17:50.727Z,2.40
2022-07-31T13:20:18.708Z,2.10
2022-07-31T13:22:45.508Z,2.33
2022-07-31T13:25:12.269Z,1.75
2022-07-31T13:27:39.542Z,2.00
2022-07-31T13:30:09.220Z,2.20
2022-07-31T13:32:36.078Z,2.15
2022-07-31T13:35:24.302Z,2.00
2022-07-31T13:37:50.343Z,2.10
2022-07-31T13:40:19.060Z,2.00
2022-07-31T13:42:45.849Z,2.10
2022-07-31T13:45:12.719Z,2.17
2022-07-31T13:47:50.904Z,2.17
2022-07-31T13:50:19.763Z,2.05
2022-07-31T13:52:46.494Z,2.03
2022-07-31T13:55:13.206Z,2.13
2022-07-31T13:57:40.005Z,2.22
2022-07-31T14:00:07.461Z,2.15
2022-07-31T14:02:34.376Z,1.98
2022-07-31T14:05:01.230Z,1.90
2022-07-31T14:07:45.727Z,2.05
2022-07-31T14:10:19.893Z,2.05
2022-07-31T14:12:47.059Z,1.90
2022-07-31T14:15:13.886Z,2.17
2022-07-31T14:17:40.602Z,2.00
2022-07-31T14:20:07.921Z,1.92
2022-07-31T14:22:34.732Z,2.00
2022-07-31T14:25:01.465Z,2.10
2022-07-31T14:27:28.347Z,2.30
2022-07-31T14:29:55.302Z,1.95
2022-07-31T14:32:22.472Z,1.70
2022-07-31T14:34:50.211Z,1.85
2022-07-31T14:37:17.388Z,1.98
2022-07-31T14:39:44.324Z,2.05
2022-07-31T14:42:11.505Z,2.03
2022-07-31T14:44:41.870Z,1.92
2022-07-31T14:47:10.300Z,1.92
2022-07-31T14:50:09.628Z,2.00
2022-07-31T14:52:24.293Z,1.73
2022-07-31T14:54:54.187Z,2.03
2022-07-31T14:57:22.486Z,2.13
2022-07-31T14:59:50.480Z,2.17
2022-07-31T15:02:22.151Z,2.00
2022-07-31T15:04:50.005Z,2.40
2022-07-31T15:10:05.698Z,1.90
2022-07-31T15:12:33.183Z,2.20
2022-07-31T15:15:00.101Z,2.10
2022-07-31T15:17:27.078Z,2.22
2022-07-31T15:19:53.805Z,2.22
2022-07-31T15:22:20.717Z,2.25
2022-07-31T15:24:49.926Z,2.70
2022-07-31T15:27:21.982Z,3.10
2022-07-31T15:30:04.404Z,2.30
2022-07-31T15:32:34.136Z,2.80
2022-07-31T15:35:00.983Z,3.00
2022-07-31T15:37:27.655Z,3.30
2022-07-31T15:40:03.070Z,2.80
2022-07-31T15:42:34.113Z,2.80
2022-07-31T15:45:00.947Z,3.08
2022-07-31T15:47:27.754Z,3.13
2022-07-31T15:49:56.428Z,2.80
2022-07-31T15:52:23.735Z,3.35
2022-07-31T15:54:52.291Z,3.72
2022-07-31T15:57:23.031Z,3.80
2022-07-31T15:59:50.651Z,3.50
2022-07-31T16:02:17.931Z,3.80
2022-07-31T16:04:53.345Z,3.95
2022-07-31T16:08:29.638Z,4.05
2022-07-31T16:10:15.185Z,4.13
2022-07-31T16:12:47.795Z,4.57
2022-07-31T16:15:16.721Z,4.32
2022-07-31T16:17:43.988Z,4.28
2022-07-31T16:20:12.822Z,4.32
2022-07-31T16:22:41.365Z,4.60
2022-07-31T16:25:09.921Z,5.00
2022-07-31T16:27:37.385Z,4.72
2022-07-31T16:30:05.661Z,5.22
2022-07-31T16:32:33.051Z,4.65
2022-07-31T16:35:01.208Z,4.22
2022-07-31T16:37:51.326Z,5.20
2022-07-31T16:40:30.028Z,4.95
2022-07-31T16:43:00.978Z,5.70
2022-07-31T16:45:28.440Z,5.30
2022-07-31T16:47:55.192Z,6.38
2022-07-31T16:50:22.159Z,5.47
2022-07-31T16:52:52.733Z,5.93
2022-07-31T16:55:21.143Z,6.03
2022-07-31T16:58:11.089Z,6.80
2022-07-31T17:00:39.133Z,7.00
2022-07-31T17:03:06.121Z,6.93
2022-07-31T17:05:32.928Z,7.55
2022-07-31T17:07:59.695Z,8.20
2022-07-31T17:10:27.148Z,8.57
2022-07-31T17:12:56.449Z,9.07
2022-07-31T17:15:23.234Z,10.57
2022-07-31T17:17:50.425Z,12.27
2022-07-31T17:20:23.494Z,12.27
2022-07-31T17:22:54.592Z,11.85
2022-07-31T17:25:22.439Z,12.27
2022-07-31T17:27:49.417Z,12.80
2022-07-31T17:30:16.224Z,13.23
2022-07-31T17:32:42.956Z,14.52
2022-07-31T17:35:10.104Z,14.10
2022-07-31T17:37:40.711Z,15.38
2022-07-31T17:40:27.308Z,15.60
2022-07-31T17:42:55.288Z,14.80
2022-07-31T17:45:21.990Z,16.45
2022-07-31T17:47:49.026Z,15.90
2022-07-31T17:50:30.557Z,16.02
2022-07-31T17:52:57.220Z,15.55
2022-07-31T17:55:23.982Z,16.65
2022-07-31T17:57:50.688Z,15.52
2022-07-31T18:00:19.334Z,16.73
2022-07-31T18:02:46.115Z,15.73
2022-07-31T18:05:13.010Z,16.42
2022-07-31T18:07:40.265Z,16.60
2022-07-31T18:10:09.370Z,15.43
2022-07-31T18:12:56.825Z,14.95
2022-07-31T18:15:23.089Z,15.23
2022-07-31T18:18:02.445Z,15.07
2022-07-31T18:20:29.215Z,14.95
2022-07-31T18:22:58.474Z,15.43
2022-07-31T18:25:27.031Z,14.85
2022-07-31T18:27:57.111Z,16.17
2022-07-31T18:30:23.885Z,14.45
2022-07-31T18:32:57.132Z,14.90
2022-07-31T18:35:23.755Z,15.63
2022-07-31T18:37:50.529Z,15.83
2022-07-31T18:40:17.273Z,15.38
2022-07-31T18:42:44.004Z,15.13
2022-07-31T18:45:11.022Z,13.65
2022-07-31T18:47:37.714Z,15.75
2022-07-31T18:50:59.053Z,16.15
2022-07-31T18:52:52.073Z,15.95
2022-07-31T18:55:18.867Z,15.40
2022-07-31T18:57:45.620Z,15.98
2022-07-31T19:00:12.797Z,14.43
2022-07-31T19:02:39.568Z,16.35
2022-07-31T19:05:07.548Z,14.50
2022-07-31T19:07:40.425Z,15.10
2022-07-31T19:10:07.969Z,14.40
2022-07-31T19:12:35.949Z,15.05
2022-07-31T19:15:03.542Z,13.10
2022-07-31T19:17:44.136Z,13.35
2022-07-31T19:20:12.616Z,14.73
2022-07-31T19:22:59.246Z,13.50
2022-07-31T19:25:26.000Z,16.23
2022-07-31T19:27:52.693Z,15.77
2022-07-31T19:30:20.175Z,15.38
2022-07-31T19:32:46.890Z,16.13
2022-07-31T19:35:13.743Z,16.10
2022-07-31T19:37:40.853Z,15.63
2022-07-31T19:40:08.774Z,15.82
2022-07-31T19:42:35.827Z,16.10
2022-07-31T19:45:02.839Z,16.83
2022-07-31T19:47:29.563Z,16.80
2022-07-31T19:49:56.224Z,17.42
2022-07-31T19:52:22.971Z,17.40
2022-07-31T19:54:49.660Z,19.27
2022-07-31T19:57:16.450Z,17.67
2022-07-31T19:59:45.040Z,18.92
2022-07-31T20:02:16.715Z,19.73
2022-07-31T20:04:43.732Z,18.15
2022-07-31T20:07:10.859Z,21.20
2022-07-31T20:09:37.578Z,19.98
2022-07-31T20:12:04.755Z,21.15
2022-07-31T20:14:31.653Z,20.55
2022-07-31T20:16:58.374Z,20.15
2022-07-31T20:19:25.153Z,19.58
2022-07-31T20:21:51.996Z,19.65
2022-07-31T20:24:18.806Z,19.60
2022-07-31T20:26:45.617Z,19.52
2022-07-31T20:29:12.444Z,21.25
2022-07-31T20:31:39.235Z,20.13
2022-07-31T20:34:06.003Z,19.10
2022-07-31T20:36:32.671Z,19.27
2022-07-31T20:39:00.151Z,19.73
2022-07-31T20:41:29.629Z,18.13
2022-07-31T20:43:56.479Z,18.55
2022-07-31T20:46:23.454Z,18.52
2022-07-31T20:48:50.415Z,17.85
2022-07-31T20:51:23.384Z,18.50
2022-07-31T20:53:51.837Z,19.02
2022-07-31T20:56:19.013Z,18.20
2022-07-31T20:58:51.431Z,18.67
2022-07-31T21:01:20.192Z,17.85
2022-07-31T21:03:47.778Z,16.77
2022-07-31T21:06:14.661Z,15.80
2022-07-31T21:08:41.646Z,16.65
2022-07-31T21:11:08.788Z,16.13
2022-07-31T21:13:36.290Z,13.97
2022-07-31T21:16:03.996Z,13.02
2022-07-31T21:18:35.830Z,13.33
2022-07-31T21:21:04.682Z,13.68
2022-07-31T21:23:31.580Z,12.73
2022-07-31T21:25:58.925Z,12.40
2022-07-31T21:28:27.891Z,14.20
2022-07-31T21:30:56.518Z,13.50
2022-07-31T21:33:27.776Z,13.15
2022-07-31T21:35:55.339Z,14.10
2022-07-31T21:38:22.403Z,14.23
2022-07-31T21:40:49.766Z,13.02
2022-07-31T21:43:22.159Z,13.10
2022-07-31T21:45:57.348Z,13.77
2022-07-31T21:48:29.958Z,13.77
2022-07-31T21:50:56.921Z,13.45
2022-07-31T21:53:24.579Z,12.53
2022-07-31T21:55:51.780Z,13.47
2022-07-31T21:58:18.721Z,13.43
2022-07-31T22:00:45.776Z,12.93
2022-07-31T22:03:12.776Z,15.15
2022-07-31T22:05:58.123Z,13.48
2022-07-31T22:08:24.887Z,14.07
2022-07-31T22:10:52.012Z,14.40
2022-07-31T22:13:19.706Z,13.70
2022-07-31T22:15:51.299Z,14.83
2022-07-31T22:18:34.365Z,13.38
2022-07-31T22:21:05.048Z,12.47
2022-07-31T22:23:32.220Z,13.48
2022-07-31T22:25:59.305Z,14.43
2022-07-31T22:28:27.184Z,13.27
2022-07-31T22:30:55.133Z,12.73
2022-07-31T22:33:22.438Z,12.70
2022-07-31T22:35:58.374Z,12.40
2022-07-31T22:38:27.543Z,13.13
2022-07-31T22:40:54.316Z,11.60
2022-07-31T22:44:12.246Z,11.80
2022-07-31T22:46:09.904Z,12.43
2022-07-31T22:48:40.207Z,12.48
2022-07-31T22:51:07.716Z,12.55
2022-07-31T22:53:35.045Z,12.75
2022-07-31T22:56:02.046Z,12.00
2022-07-31T22:58:28.939Z,12.45
2022-07-31T23:00:56.378Z,11.80
2022-07-31T23:03:23.242Z,12.98
2022-07-31T23:06:12.199Z,13.35
2022-07-31T23:08:36.740Z,12.32
2022-07-31T23:11:03.485Z,12.68
2022-07-31T23:13:30.263Z,13.32
2022-07-31T23:15:56.967Z,13.50
2022-07-31T23:18:23.710Z,12.60
2022-07-31T23:20:50.524Z,13.73
2022-07-31T23:23:17.178Z,13.87
2022-07-31T23:25:43.986Z,14.10
2022-07-31T23:28:10.701Z,14.10
2022-07-31T23:30:37.454Z,14.63
2022-07-31T23:33:04.341Z,14.30
2022-07-31T23:35:31.057Z,14.73
2022-07-31T23:37:57.789Z,15.13
2022-07-31T23:40:24.576Z,15.65
2022-07-31T23:42:51.230Z,14.90
2022-07-31T23:45:17.935Z,16.13
2022-07-31T23:47:46.917Z,14.43
2022-07-31T23:50:15.395Z,15.20
2022-07-31T23:52:42.893Z,15.53
2022-07-31T23:55:10.073Z,16.75
2022-07-31T23:57:37.031Z,15.93
